sensor_id;sensor_type;location;lat;lon;timestamp;P1;durP1;ratioP1;P2;durP2;ratioP2
16866;SDS011;8550;52.596;13.320;2022-08-19T00:03:28;11.27;;;7.87;;
16866;SDS011;8550;52.596;13.320;2022-08-19T00:08:30;13.05;;;8.30;;
16866;SDS011;8550;52.596;13.320;2022-08-19T00:13:33;11.15;;;7.60;;
16866;SDS011;8550;52.596;13.320;2022-08-19T00:18:37;10.77;;;7.43;;
16866;SDS011;8550;52.596;13.320;2022-08-19T00:23:38;13.73;;;7.30;;
16866;SDS011;8550;52.596;13.320;2022-08-19T00:28:40;9.95;;;7.00;;
16866;SDS011;8550;52.596;13.320;2022-08-19T00:33:44;10.77;;;7.20;;
16866;SDS011;8550;52.596;13.320;2022-08-19T00:38:46;11.48;;;7.43;;
16866;SDS011;8550;52.596;13.320;2022-08-19T00:43:59;12.55;;;7.68;;
16866;SDS011;8550;52.596;13.320;2022-08-19T00:49:06;10.87;;;7.57;;
16866;SDS011;8550;52.596;13.320;2022-08-19T00:54:14;11.53;;;7.43;;
16866;SDS011;8550;52.596;13.320;2022-08-19T00:59:18;10.30;;;7.18;;
16866;SDS011;8550;52.596;13.320;2022-08-19T01:04:23;11.02;;;7.97;;
16866;SDS011;8550;52.596;13.320;2022-08-19T01:09:25;10.03;;;7.10;;
16866;SDS011;8550;52.596;13.320;2022-08-19T01:14:28;10.38;;;7.35;;
16866;SDS011;8550;52.596;13.320;2022-08-19T01:19:34;10.40;;;7.15;;
16866;SDS011;8550;52.596;13.320;2022-08-19T01:24:39;11.23;;;6.77;;
16866;SDS011;8550;52.596;13.320;2022-08-19T01:29:42;10.20;;;7.00;;
16866;SDS011;8550;52.596;13.320;2022-08-19T01:34:44;11.93;;;7.72;;
16866;SDS011;8550;52.596;13.320;2022-08-19T01:39:48;11.30;;;7.50;;
16866;SDS011;8550;52.596;13.320;2022-08-19T01:44:50;11.37;;;7.80;;
16866;SDS011;8550;52.596;13.320;2022-08-19T01:49:52;11.07;;;7.10;;
16866;SDS011;8550;52.596;13.320;2022-08-19T01:54:55;10.20;;;6.63;;
16866;SDS011;8550;52.596;13.320;2022-08-19T01:59:57;9.87;;;6.77;;
16866;SDS011;8550;52.596;13.320;2022-08-19T02:04:59;11.30;;;7.07;;
16866;SDS011;8550;52.596;13.320;2022-08-19T02:10:03;12.00;;;7.18;;
16866;SDS011;8550;52.596;13.320;2022-08-19T02:15:06;11.20;;;7.13;;
16866;SDS011;8550;52.596;13.320;2022-08-19T02:20:08;10.07;;;6.47;;
16866;SDS011;8550;52.596;13.320;2022-08-19T02:25:14;11.18;;;7.50;;
16866;SDS011;8550;52.596;13.320;2022-08-19T02:30:17;12.70;;;7.30;;
16866;SDS011;8550;52.596;13.320;2022-08-19T02:35:19;13.43;;;7.57;;
16866;SDS011;8550;52.596;13.320;2022-08-19T02:40:23;13.02;;;7.60;;
16866;SDS011;8550;52.596;13.320;2022-08-19T02:45:24;12.52;;;7.80;;
16866;SDS011;8550;52.596;13.320;2022-08-19T02:50:26;12.33;;;7.20;;
16866;SDS011;8550;52.596;13.320;2022-08-19T02:55:30;13.40;;;9.23;;
16866;SDS011;8550;52.596;13.320;2022-08-19T03:00:31;12.50;;;8.15;;
16866;SDS011;8550;52.596;13.320;2022-08-19T03:05:33;14.47;;;9.37;;
16866;SDS011;8550;52.596;13.320;2022-08-19T03:10:40;15.30;;;9.13;;
16866;SDS011;8550;52.596;13.320;2022-08-19T03:15:45;15.52;;;10.50;;
16866;SDS011;8550;52.596;13.320;2022-08-19T03:20:49;15.40;;;10.40;;
16866;SDS011;8550;52.596;13.320;2022-08-19T03:25:55;14.60;;;9.17;;
16866;SDS011;8550;52.596;13.320;2022-08-19T03:30:58;14.25;;;9.02;;
16866;SDS011;8550;52.596;13.320;2022-08-19T03:36:03;13.57;;;9.80;;
16866;SDS011;8550;52.596;13.320;2022-08-19T03:41:09;15.80;;;9.20;;
16866;SDS011;8550;52.596;13.320;2022-08-19T03:46:15;15.52;;;9.95;;
16866;SDS011;8550;52.596;13.320;2022-08-19T03:51:20;14.48;;;8.65;;
16866;SDS011;8550;52.596;13.320;2022-08-19T03:56:26;15.47;;;10.40;;
16866;SDS011;8550;52.596;13.320;2022-08-19T04:01:32;17.75;;;9.52;;
16866;SDS011;8550;52.596;13.320;2022-08-19T04:06:37;17.67;;;9.70;;
16866;SDS011;8550;52.596;13.320;2022-08-19T04:11:42;13.80;;;9.53;;
16866;SDS011;8550;52.596;13.320;2022-08-19T04:16:46;16.20;;;9.17;;
16866;SDS011;8550;52.596;13.320;2022-08-19T04:21:51;13.10;;;9.10;;
16866;SDS011;8550;52.596;13.320;2022-08-19T04:26:58;13.55;;;9.15;;
16866;SDS011;8550;52.596;13.320;2022-08-19T04:32:00;12.53;;;8.27;;
16866;SDS011;8550;52.596;13.320;2022-08-19T04:37:05;13.50;;;8.77;;
16866;SDS011;8550;52.596;13.320;2022-08-19T04:42:13;14.40;;;9.40;;
16866;SDS011;8550;52.596;13.320;2022-08-19T04:47:32;13.53;;;8.73;;
16866;SDS011;8550;52.596;13.320;2022-08-19T04:52:34;13.00;;;8.80;;
16866;SDS011;8550;52.596;13.320;2022-08-19T04:57:38;13.10;;;9.02;;
16866;SDS011;8550;52.596;13.320;2022-08-19T05:02:40;13.73;;;9.87;;
16866;SDS011;8550;52.596;13.320;2022-08-19T05:07:42;13.43;;;9.13;;
16866;SDS011;8550;52.596;13.320;2022-08-19T05:12:45;16.00;;;10.25;;
16866;SDS011;8550;52.596;13.320;2022-08-19T05:17:47;15.00;;;9.18;;
16866;SDS011;8550;52.596;13.320;2022-08-19T05:23:02;12.63;;;8.67;;
16866;SDS011;8550;52.596;13.320;2022-08-19T05:28:06;14.27;;;8.68;;
16866;SDS011;8550;52.596;13.320;2022-08-19T05:33:07;13.13;;;8.75;;
16866;SDS011;8550;52.596;13.320;2022-08-19T05:38:11;13.40;;;8.20;;
16866;SDS011;8550;52.596;13.320;2022-08-19T05:43:14;13.75;;;9.07;;
16866;SDS011;8550;52.596;13.320;2022-08-19T05:48:16;11.75;;;7.97;;
16866;SDS011;8550;52.596;13.320;2022-08-19T05:53:20;13.20;;;8.70;;
16866;SDS011;8550;52.596;13.320;2022-08-19T05:58:23;11.33;;;7.90;;
16866;SDS011;8550;52.596;13.320;2022-08-19T06:03:26;15.30;;;9.40;;
16866;SDS011;8550;52.596;13.320;2022-08-19T06:08:28;11.90;;;8.57;;
16866;SDS011;8550;52.596;13.320;2022-08-19T06:13:32;12.37;;;8.63;;
16866;SDS011;8550;52.596;13.320;2022-08-19T06:18:34;11.85;;;8.20;;
16866;SDS011;8550;52.596;13.320;2022-08-19T06:23:35;15.80;;;8.20;;
16866;SDS011;8550;52.596;13.320;2022-08-19T06:28:39;11.93;;;8.30;;
16866;SDS011;8550;52.596;13.320;2022-08-19T06:33:43;15.15;;;8.55;;
16866;SDS011;8550;52.596;13.320;2022-08-19T06:38:46;12.05;;;8.90;;
16866;SDS011;8550;52.596;13.320;2022-08-19T06:43:49;21.17;;;15.20;;
16866;SDS011;8550;52.596;13.320;2022-08-19T06:48:52;13.53;;;9.80;;
16866;SDS011;8550;52.596;13.320;2022-08-19T06:53:54;15.30;;;9.45;;
16866;SDS011;8550;52.596;13.320;2022-08-19T06:58:58;14.45;;;10.23;;
16866;SDS011;8550;52.596;13.320;2022-08-19T07:04:00;15.27;;;10.43;;
16866;SDS011;8550;52.596;13.320;2022-08-19T07:09:02;13.77;;;9.88;;
16866;SDS011;8550;52.596;13.320;2022-08-19T07:14:06;13.40;;;10.32;;
16866;SDS011;8550;52.596;13.320;2022-08-19T07:19:08;17.10;;;10.33;;
16866;SDS011;8550;52.596;13.320;2022-08-19T07:24:09;15.48;;;11.00;;
16866;SDS011;8550;52.596;13.320;2022-08-19T07:29:13;16.10;;;10.10;;
16866;SDS011;8550;52.596;13.320;2022-08-19T07:34:16;15.67;;;12.13;;
16866;SDS011;8550;52.596;13.320;2022-08-19T07:39:19;14.40;;;10.47;;
16866;SDS011;8550;52.596;13.320;2022-08-19T07:44:24;18.27;;;10.73;;
16866;SDS011;8550;52.596;13.320;2022-08-19T07:49:27;14.90;;;11.00;;
16866;SDS011;8550;52.596;13.320;2022-08-19T07:54:30;13.00;;;9.47;;
16866;SDS011;8550;52.596;13.320;2022-08-19T07:59:35;15.80;;;11.13;;
16866;SDS011;8550;52.596;13.320;2022-08-19T08:04:37;17.35;;;10.30;;
16866;SDS011;8550;52.596;13.320;2022-08-19T08:09:57;13.83;;;9.93;;
16866;SDS011;8550;52.596;13.320;2022-08-19T08:15:03;14.48;;;10.68;;
16866;SDS011;8550;52.596;13.320;2022-08-19T08:20:08;14.57;;;9.77;;
16866;SDS011;8550;52.596;13.320;2022-08-19T08:25:11;15.93;;;10.93;;
16866;SDS011;8550;52.596;13.320;2022-08-19T08:30:17;14.83;;;10.80;;
16866;SDS011;8550;52.596;13.320;2022-08-19T08:35:22;13.98;;;9.43;;
16866;SDS011;8550;52.596;13.320;2022-08-19T08:40:27;12.93;;;10.00;;
16866;SDS011;8550;52.596;13.320;2022-08-19T08:45:31;15.57;;;11.20;;
16866;SDS011;8550;52.596;13.320;2022-08-19T08:50:38;14.68;;;10.82;;
16866;SDS011;8550;52.596;13.320;2022-08-19T08:55:44;13.57;;;9.00;;
16866;SDS011;8550;52.596;13.320;2022-08-19T09:00:48;14.87;;;9.97;;
16866;SDS011;8550;52.596;13.320;2022-08-19T09:05:54;14.05;;;10.00;;
16866;SDS011;8550;52.596;13.320;2022-08-19T09:11:00;15.52;;;10.52;;
16866;SDS011;8550;52.596;13.320;2022-08-19T09:16:09;38.53;;;24.93;;
16866;SDS011;8550;52.596;13.320;2022-08-19T09:21:14;14.13;;;10.33;;
16866;SDS011;8550;52.596;13.320;2022-08-19T09:26:17;13.52;;;10.32;;
16866;SDS011;8550;52.596;13.320;2022-08-19T09:31:25;14.05;;;10.10;;
16866;SDS011;8550;52.596;13.320;2022-08-19T09:36:29;12.13;;;9.10;;
16866;SDS011;8550;52.596;13.320;2022-08-19T09:41:36;14.13;;;8.80;;
16866;SDS011;8550;52.596;13.320;2022-08-19T09:46:39;11.75;;;8.65;;
16866;SDS011;8550;52.596;13.320;2022-08-19T09:51:40;13.23;;;8.30;;
16866;SDS011;8550;52.596;13.320;2022-08-19T09:56:42;12.48;;;8.82;;
16866;SDS011;8550;52.596;13.320;2022-08-19T10:01:45;13.63;;;9.60;;
16866;SDS011;8550;52.596;13.320;2022-08-19T10:06:48;12.03;;;8.87;;
16866;SDS011;8550;52.596;13.320;2022-08-19T10:11:51;13.03;;;9.33;;
16866;SDS011;8550;52.596;13.320;2022-08-19T10:16:54;11.93;;;8.82;;
16866;SDS011;8550;52.596;13.320;2022-08-19T10:21:56;11.93;;;8.70;;
16866;SDS011;8550;52.596;13.320;2022-08-19T10:26:58;13.00;;;8.60;;
16866;SDS011;8550;52.596;13.320;2022-08-19T10:32:05;12.82;;;9.23;;
16866;SDS011;8550;52.596;13.320;2022-08-19T10:37:08;10.95;;;8.00;;
16866;SDS011;8550;52.596;13.320;2022-08-19T10:42:10;12.03;;;8.30;;
16866;SDS011;8550;52.596;13.320;2022-08-19T10:47:14;12.68;;;8.70;;
16866;SDS011;8550;52.596;13.320;2022-08-19T10:52:16;12.75;;;8.70;;
16866;SDS011;8550;52.596;13.320;2022-08-19T10:57:32;11.10;;;7.63;;
16866;SDS011;8550;52.596;13.320;2022-08-19T11:02:35;15.00;;;8.57;;
16866;SDS011;8550;52.596;13.320;2022-08-19T11:07:37;12.18;;;8.57;;
16866;SDS011;8550;52.596;13.320;2022-08-19T11:12:40;13.88;;;8.27;;
16866;SDS011;8550;52.596;13.320;2022-08-19T11:17:43;11.80;;;8.40;;
16866;SDS011;8550;52.596;13.320;2022-08-19T11:22:45;12.93;;;8.20;;
16866;SDS011;8550;52.596;13.320;2022-08-19T11:27:46;11.07;;;8.65;;
16866;SDS011;8550;52.596;13.320;2022-08-19T11:32:52;11.77;;;7.90;;
16866;SDS011;8550;52.596;13.320;2022-08-19T11:37:54;9.57;;;7.25;;
16866;SDS011;8550;52.596;13.320;2022-08-19T11:42:56;11.60;;;5.50;;
16866;SDS011;8550;52.596;13.320;2022-08-19T11:47:59;10.13;;;6.73;;
16866;SDS011;8550;52.596;13.320;2022-08-19T11:53:01;9.30;;;6.10;;
16866;SDS011;8550;52.596;13.320;2022-08-19T11:58:03;8.80;;;6.20;;
16866;SDS011;8550;52.596;13.320;2022-08-19T12:03:08;9.55;;;6.93;;
16866;SDS011;8550;52.596;13.320;2022-08-19T12:08:09;9.33;;;5.87;;
16866;SDS011;8550;52.596;13.320;2022-08-19T12:13:13;11.55;;;6.22;;
16866;SDS011;8550;52.596;13.320;2022-08-19T12:18:19;9.27;;;5.88;;
16866;SDS011;8550;52.596;13.320;2022-08-19T12:23:21;9.97;;;6.13;;
16866;SDS011;8550;52.596;13.320;2022-08-19T12:28:24;8.38;;;5.95;;
16866;SDS011;8550;52.596;13.320;2022-08-19T12:33:28;9.38;;;6.38;;
16866;SDS011;8550;52.596;13.320;2022-08-19T12:38:32;9.10;;;6.60;;
16866;SDS011;8550;52.596;13.320;2022-08-19T12:43:35;10.17;;;6.33;;
16866;SDS011;8550;52.596;13.320;2022-08-19T12:48:39;9.27;;;6.65;;
16866;SDS011;8550;52.596;13.320;2022-08-19T12:53:42;9.13;;;6.05;;
16866;SDS011;8550;52.596;13.320;2022-08-19T12:58:44;10.47;;;6.77;;
16866;SDS011;8550;52.596;13.320;2022-08-19T13:03:48;10.30;;;6.88;;
16866;SDS011;8550;52.596;13.320;2022-08-19T13:08:50;11.77;;;7.18;;
16866;SDS011;8550;52.596;13.320;2022-08-19T13:13:52;8.77;;;6.33;;
16866;SDS011;8550;52.596;13.320;2022-08-19T13:18:56;8.75;;;5.95;;
16866;SDS011;8550;52.596;13.320;2022-08-19T13:23:59;7.88;;;5.85;;
16866;SDS011;8550;52.596;13.320;2022-08-19T13:29:01;8.57;;;6.43;;
16866;SDS011;8550;52.596;13.320;2022-08-19T13:34:27;10.10;;;7.13;;
16866;SDS011;8550;52.596;13.320;2022-08-19T13:39:32;8.90;;;6.90;;
16866;SDS011;8550;52.596;13.320;2022-08-19T13:44:34;12.35;;;7.53;;
16866;SDS011;8550;52.596;13.320;2022-08-19T13:49:37;9.37;;;6.70;;
16866;SDS011;8550;52.596;13.320;2022-08-19T13:54:39;9.68;;;6.90;;
16866;SDS011;8550;52.596;13.320;2022-08-19T13:59:41;9.68;;;6.97;;
16866;SDS011;8550;52.596;13.320;2022-08-19T14:04:44;9.87;;;6.70;;
16866;SDS011;8550;52.596;13.320;2022-08-19T14:09:46;9.73;;;7.20;;
16866;SDS011;8550;52.596;13.320;2022-08-19T14:14:48;12.05;;;6.97;;
16866;SDS011;8550;52.596;13.320;2022-08-19T14:19:56;9.20;;;6.50;;
16866;SDS011;8550;52.596;13.320;2022-08-19T14:24:59;9.80;;;7.07;;
16866;SDS011;8550;52.596;13.320;2022-08-19T14:30:01;9.93;;;6.22;;
16866;SDS011;8550;52.596;13.320;2022-08-19T14:35:04;10.02;;;6.63;;
16866;SDS011;8550;52.596;13.320;2022-08-19T14:40:08;10.50;;;6.13;;
16866;SDS011;8550;52.596;13.320;2022-08-19T14:45:11;8.65;;;6.43;;
16866;SDS011;8550;52.596;13.320;2022-08-19T14:50:14;9.43;;;5.40;;
16866;SDS011;8550;52.596;13.320;2022-08-19T14:55:16;8.57;;;5.77;;
16866;SDS011;8550;52.596;13.320;2022-08-19T15:00:19;8.23;;;5.53;;
16866;SDS011;8550;52.596;13.320;2022-08-19T15:05:22;8.18;;;5.80;;
16866;SDS011;8550;52.596;13.320;2022-08-19T15:10:24;8.47;;;5.90;;
16866;SDS011;8550;52.596;13.320;2022-08-19T15:15:26;7.33;;;5.70;;
16866;SDS011;8550;52.596;13.320;2022-08-19T15:20:29;10.18;;;6.43;;
16866;SDS011;8550;52.596;13.320;2022-08-19T15:25:31;8.77;;;6.03;;
16866;SDS011;8550;52.596;13.320;2022-08-19T15:30:34;11.47;;;5.27;;
16866;SDS011;8550;52.596;13.320;2022-08-19T15:35:37;10.57;;;6.20;;
16866;SDS011;8550;52.596;13.320;2022-08-19T15:40:40;8.35;;;5.85;;
16866;SDS011;8550;52.596;13.320;2022-08-19T15:45:42;8.07;;;5.90;;
16866;SDS011;8550;52.596;13.320;2022-08-19T15:50:46;8.38;;;5.70;;
16866;SDS011;8550;52.596;13.320;2022-08-19T15:55:48;11.25;;;7.45;;
16866;SDS011;8550;52.596;13.320;2022-08-19T16:00:50;9.40;;;6.67;;
16866;SDS011;8550;52.596;13.320;2022-08-19T16:06:10;10.67;;;6.73;;
16866;SDS011;8550;52.596;13.320;2022-08-19T16:11:29;11.27;;;6.50;;
16866;SDS011;8550;52.596;13.320;2022-08-19T16:16:33;10.00;;;6.55;;
16866;SDS011;8550;52.596;13.320;2022-08-19T16:21:37;9.40;;;6.40;;
16866;SDS011;8550;52.596;13.320;2022-08-19T16:26:39;9.88;;;6.57;;
16866;SDS011;8550;52.596;13.320;2022-08-19T16:31:42;10.95;;;6.75;;
16866;SDS011;8550;52.596;13.320;2022-08-19T16:36:47;11.10;;;6.93;;
16866;SDS011;8550;52.596;13.320;2022-08-19T16:41:49;9.70;;;6.53;;
16866;SDS011;8550;52.596;13.320;2022-08-19T16:46:51;10.10;;;6.82;;
16866;SDS011;8550;52.596;13.320;2022-08-19T16:51:54;10.60;;;6.60;;
16866;SDS011;8550;52.596;13.320;2022-08-19T16:56:56;9.83;;;6.73;;
16866;SDS011;8550;52.596;13.320;2022-08-19T17:01:58;9.82;;;6.75;;
16866;SDS011;8550;52.596;13.320;2022-08-19T17:07:02;9.02;;;7.20;;
16866;SDS011;8550;52.596;13.320;2022-08-19T17:12:04;10.23;;;6.10;;
16866;SDS011;8550;52.596;13.320;2022-08-19T17:17:06;8.73;;;6.47;;
16866;SDS011;8550;52.596;13.320;2022-08-19T17:22:13;9.20;;;5.85;;
16866;SDS011;8550;52.596;13.320;2022-08-19T17:27:14;7.20;;;4.77;;
16866;SDS011;8550;52.596;13.320;2022-08-19T17:32:18;6.32;;;3.90;;
16866;SDS011;8550;52.596;13.320;2022-08-19T17:37:21;9.40;;;4.70;;
16866;SDS011;8550;52.596;13.320;2022-08-19T17:42:23;7.47;;;4.23;;
16866;SDS011;8550;52.596;13.320;2022-08-19T17:47:25;7.87;;;4.90;;
16866;SDS011;8550;52.596;13.320;2022-08-19T17:52:29;8.43;;;4.95;;
16866;SDS011;8550;52.596;13.320;2022-08-19T17:57:31;12.13;;;6.20;;
16866;SDS011;8550;52.596;13.320;2022-08-19T18:02:33;10.90;;;5.43;;
16866;SDS011;8550;52.596;13.320;2022-08-19T18:07:36;9.80;;;5.30;;
16866;SDS011;8550;52.596;13.320;2022-08-19T18:12:38;8.40;;;4.60;;
16866;SDS011;8550;52.596;13.320;2022-08-19T18:17:40;7.13;;;4.50;;
16866;SDS011;8550;52.596;13.320;2022-08-19T18:22:44;8.05;;;4.45;;
16866;SDS011;8550;52.596;13.320;2022-08-19T18:27:48;7.40;;;4.30;;
16866;SDS011;8550;52.596;13.320;2022-08-19T18:32:50;7.03;;;4.60;;
16866;SDS011;8550;52.596;13.320;2022-08-19T18:37:54;7.63;;;4.70;;
16866;SDS011;8550;52.596;13.320;2022-08-19T18:42:57;8.07;;;4.80;;
16866;SDS011;8550;52.596;13.320;2022-08-19T18:48:18;7.25;;;4.60;;
16866;SDS011;8550;52.596;13.320;2022-08-19T18:53:39;7.50;;;4.80;;
16866;SDS011;8550;52.596;13.320;2022-08-19T18:58:43;8.45;;;5.55;;
16866;SDS011;8550;52.596;13.320;2022-08-19T19:03:46;8.35;;;5.22;;
16866;SDS011;8550;52.596;13.320;2022-08-19T19:08:51;7.67;;;4.73;;
16866;SDS011;8550;52.596;13.320;2022-08-19T19:13:54;8.68;;;5.13;;
16866;SDS011;8550;52.596;13.320;2022-08-19T19:18:56;8.45;;;5.22;;
16866;SDS011;8550;52.596;13.320;2022-08-19T19:23:59;8.43;;;5.77;;
16866;SDS011;8550;52.596;13.320;2022-08-19T19:29:02;9.60;;;6.23;;
16866;SDS011;8550;52.596;13.320;2022-08-19T19:34:04;11.52;;;6.43;;
16866;SDS011;8550;52.596;13.320;2022-08-19T19:39:07;9.82;;;6.60;;
16866;SDS011;8550;52.596;13.320;2022-08-19T19:44:09;10.67;;;6.70;;
16866;SDS011;8550;52.596;13.320;2022-08-19T19:49:11;11.23;;;7.32;;
16866;SDS011;8550;52.596;13.320;2022-08-19T19:54:15;23.60;;;18.20;;
16866;SDS011;8550;52.596;13.320;2022-08-19T19:59:18;13.67;;;7.70;;
16866;SDS011;8550;52.596;13.320;2022-08-19T20:04:20;13.38;;;8.65;;
16866;SDS011;8550;52.596;13.320;2022-08-19T20:09:23;13.40;;;8.68;;
16866;SDS011;8550;52.596;13.320;2022-08-19T20:14:26;13.30;;;8.70;;
16866;SDS011;8550;52.596;13.320;2022-08-19T20:19:31;13.83;;;8.43;;
16866;SDS011;8550;52.596;13.320;2022-08-19T20:24:37;14.43;;;8.48;;
16866;SDS011;8550;52.596;13.320;2022-08-19T20:29:41;14.50;;;9.18;;
16866;SDS011;8550;52.596;13.320;2022-08-19T20:34:43;13.30;;;8.27;;
16866;SDS011;8550;52.596;13.320;2022-08-19T20:39:49;14.88;;;9.55;;
16866;SDS011;8550;52.596;13.320;2022-08-19T20:44:51;16.40;;;10.38;;
16866;SDS011;8550;52.596;13.320;2022-08-19T20:49:53;15.43;;;10.00;;
16866;SDS011;8550;52.596;13.320;2022-08-19T20:54:56;17.52;;;10.13;;
16866;SDS011;8550;52.596;13.320;2022-08-19T20:59:57;16.35;;;11.07;;
16866;SDS011;8550;52.596;13.320;2022-08-19T21:04:59;16.33;;;9.93;;
16866;SDS011;8550;52.596;13.320;2022-08-19T21:10:03;17.30;;;10.37;;
16866;SDS011;8550;52.596;13.320;2022-08-19T21:15:06;19.15;;;10.65;;
16866;SDS011;8550;52.596;13.320;2022-08-19T21:20:08;18.35;;;11.15;;
16866;SDS011;8550;52.596;13.320;2022-08-19T21:25:12;18.67;;;10.57;;
16866;SDS011;8550;52.596;13.320;2022-08-19T21:30:15;18.45;;;11.05;;
16866;SDS011;8550;52.596;13.320;2022-08-19T21:35:17;18.98;;;11.02;;
16866;SDS011;8550;52.596;13.320;2022-08-19T21:40:20;18.83;;;10.80;;
16866;SDS011;8550;52.596;13.320;2022-08-19T21:45:22;18.10;;;10.65;;
16866;SDS011;8550;52.596;13.320;2022-08-19T21:50:25;16.80;;;10.43;;
16866;SDS011;8550;52.596;13.320;2022-08-19T21:55:29;17.10;;;10.20;;
16866;SDS011;8550;52.596;13.320;2022-08-19T22:00:31;15.93;;;10.10;;
16866;SDS011;8550;52.596;13.320;2022-08-19T22:05:34;16.52;;;10.40;;
16866;SDS011;8550;52.596;13.320;2022-08-19T22:10:37;17.88;;;10.48;;
16866;SDS011;8550;52.596;13.320;2022-08-19T22:15:39;16.10;;;9.90;;
16866;SDS011;8550;52.596;13.320;2022-08-19T22:20:42;19.73;;;10.98;;
16866;SDS011;8550;52.596;13.320;2022-08-19T22:25:45;16.30;;;9.88;;
16866;SDS011;8550;52.596;13.320;2022-08-19T22:30:48;18.10;;;10.70;;
16866;SDS011;8550;52.596;13.320;2022-08-19T22:35:50;18.95;;;10.10;;
16866;SDS011;8550;52.596;13.320;2022-08-19T22:40:54;14.60;;;9.55;;
16866;SDS011;8550;52.596;13.320;2022-08-19T22:45:57;16.07;;;10.33;;
16866;SDS011;8550;52.596;13.320;2022-08-19T22:51:00;15.50;;;9.93;;
16866;SDS011;8550;52.596;13.320;2022-08-19T22:56:20;15.52;;;10.35;;
16866;SDS011;8550;52.596;13.320;2022-08-19T23:01:22;15.27;;;9.65;;
16866;SDS011;8550;52.596;13.320;2022-08-19T23:06:25;15.10;;;9.17;;
16866;SDS011;8550;52.596;13.320;2022-08-19T23:11:29;14.77;;;9.80;;
16866;SDS011;8550;52.596;13.320;2022-08-19T23:16:32;14.50;;;9.25;;
16866;SDS011;8550;52.596;13.320;2022-08-19T23:21:34;15.13;;;9.47;;
16866;SDS011;8550;52.596;13.320;2022-08-19T23:26:38;14.73;;;8.60;;
16866;SDS011;8550;52.596;13.320;2022-08-19T23:32:01;13.60;;;8.68;;
16866;SDS011;8550;52.596;13.320;2022-08-19T23:37:06;13.60;;;8.50;;
16866;SDS011;8550;52.596;13.320;2022-08-19T23:42:09;13.40;;;8.33;;
16866;SDS011;8550;52.596;13.320;2022-08-19T23:47:12;16.27;;;9.60;;
16866;SDS011;8550;52.596;13.320;2022-08-19T23:52:14;13.10;;;8.88;;
16866;SDS011;8550;52.596;13.320;2022-08-19T23:57:17;14.83;;;9.23;;
